Time;durP1;ratioP1;P1;durP2;ratioP2;P2;SDS_P1;SDS_P2;PMS_P1;PMS_P2;Temp;Humidity;BMP_temperature;BMP_pressure;BME280_temperature;BME280_humidity;BME280_pressure;Samples;Min_cycle;Max_cycle;Signal;HPM_P1;HPM_P2
2023/06/21 00:02:04;;;;;;;4.80;2.57;;;29.20;63.50;;;;;;4970318;28;20460;-84
2023/06/21 00:04:32;;;;;;;9.13;4.20;;;29.20;63.10;;;;;;4970056;28;20514;-84
2023/06/21 00:07:00;;;;;;;3.93;2.80;;;29.20;63.20;;;;;;4971364;28;20490;-84
2023/06/21 00:09:30;;;;;;;6.40;2.90;;;29.20;63.00;;;;;;4953362;29;20543;-84
2023/06/21 00:11:58;;;;;;;7.23;4.07;;;29.20;63.00;;;;;;4956860;28;20524;-84
2023/06/21 00:14:26;;;;;;;7.37;3.90;;;29.20;63.10;;;;;;4969342;28;21137;-84
2023/06/21 00:16:54;;;;;;;8.70;3.60;;;29.20;63.00;;;;;;4968133;28;20468;-84
2023/06/21 00:19:23;;;;;;;4.43;2.67;;;29.20;63.00;;;;;;4971910;28;20477;-84
2023/06/21 00:21:51;;;;;;;6.10;3.20;;;29.10;63.00;;;;;;4978569;28;20553;-84
2023/06/21 00:24:19;;;;;;;4.33;3.77;;;29.10;63.10;;;;;;4986818;28;20533;-84
2023/06/21 00:26:49;;;;;;;6.00;3.13;;;29.10;63.40;;;;;;4972670;28;20630;-84
2023/06/21 00:29:18;;;;;;;12.33;3.90;;;29.10;63.30;;;;;;4969748;28;20505;-84
2023/06/21 00:31:46;;;;;;;4.20;3.00;;;29.10;63.40;;;;;;4971339;28;21005;-84
2023/06/21 00:34:14;;;;;;;4.53;3.37;;;29.10;63.60;;;;;;4968918;28;20964;-84
2023/06/21 00:36:43;;;;;;;3.50;2.77;;;29.10;63.60;;;;;;4970118;28;20783;-83
2023/06/21 00:39:11;;;;;;;5.50;3.13;;;29.10;63.50;;;;;;4971492;28;20473;-84
2023/06/21 00:41:39;;;;;;;6.93;3.63;;;29.10;63.30;;;;;;4972565;28;20453;-83
2023/06/21 00:44:09;;;;;;;4.93;3.27;;;29.10;63.40;;;;;;4950284;28;20524;-83
2023/06/21 00:46:39;;;;;;;5.47;3.53;;;29.10;63.50;;;;;;4968929;28;20492;-83
2023/06/21 00:49:07;;;;;;;4.63;2.97;;;29.00;63.40;;;;;;4971108;28;20475;-84
2023/06/21 00:51:38;;;;;;;6.37;3.43;;;29.00;63.40;;;;;;4957570;28;20459;-84
2023/06/21 00:54:06;;;;;;;5.37;3.63;;;29.00;63.40;;;;;;4975659;28;20455;-83
2023/06/21 00:56:35;;;;;;;7.67;2.90;;;29.00;63.40;;;;;;4971067;28;20456;-83
2023/06/21 00:59:04;;;;;;;7.10;3.20;;;29.00;63.30;;;;;;4973572;28;20547;-84
2023/06/21 01:01:35;;;;;;;5.30;2.63;;;29.00;63.30;;;;;;4955754;28;20474;-83
2023/06/21 01:04:04;;;;;;;7.50;3.63;;;29.00;63.30;;;;;;4970173;28;20554;-84
2023/06/21 01:06:37;;;;;;;4.07;3.00;;;28.90;63.40;;;;;;4955332;29;20533;-84
2023/06/21 01:09:14;;;;;;;4.27;3.13;;;28.90;63.60;;;;;;4955712;29;20504;-83
2023/06/21 01:11:52;;;;;;;9.10;3.60;;;28.90;63.50;;;;;;4942762;28;20466;-84
2023/06/21 01:14:28;;;;;;;7.17;3.43;;;28.90;63.50;;;;;;4970509;28;20906;-83
2023/06/21 01:16:58;;;;;;;6.93;3.23;;;28.90;63.50;;;;;;4959600;28;20446;-83
2023/06/21 01:19:40;;;;;;;4.00;2.97;;;28.90;63.70;;;;;;4972111;28;20480;-83
2023/06/21 01:22:18;;;;;;;8.83;3.50;;;28.90;63.80;;;;;;4972989;28;20491;-83
2023/06/21 01:24:58;;;;;;;8.50;4.13;;;28.90;63.80;;;;;;4974379;28;20575;-83
2023/06/21 01:27:42;;;;;;;5.50;3.30;;;28.90;63.80;;;;;;4956034;28;20872;-83
2023/06/21 01:30:14;;;;;;;6.20;3.10;;;28.90;63.70;;;;;;4959473;28;20591;-83
2023/06/21 01:32:43;;;;;;;3.50;2.93;;;28.90;63.70;;;;;;4975465;28;20470;-83
2023/06/21 01:35:12;;;;;;;5.00;3.33;;;28.80;63.80;;;;;;4972627;28;20532;-84
2023/06/21 01:37:43;;;;;;;6.27;3.23;;;28.80;63.90;;;;;;4973023;28;20505;-84
2023/06/21 01:40:15;;;;;;;4.50;3.20;;;28.80;63.90;;;;;;4956639;28;20461;-83
2023/06/21 01:42:44;;;;;;;7.10;3.53;;;28.80;63.90;;;;;;4973549;28;20460;-83
2023/06/21 01:45:13;;;;;;;5.30;3.43;;;28.80;63.90;;;;;;4969563;28;20507;-83
2023/06/21 01:47:44;;;;;;;7.27;3.23;;;28.80;63.90;;;;;;4951980;29;20446;-83
2023/06/21 01:50:15;;;;;;;11.27;3.67;;;28.80;63.80;;;;;;4963436;28;20469;-84
2023/06/21 01:52:44;;;;;;;5.40;3.40;;;28.80;63.90;;;;;;4970220;28;20501;-84
2023/06/21 01:55:13;;;;;;;7.63;3.20;;;28.80;63.90;;;;;;4973312;28;20671;-83
2023/06/21 01:57:42;;;;;;;6.80;3.50;;;28.80;64.00;;;;;;4969570;28;20519;-83
2023/06/21 02:00:16;;;;;;;6.40;3.50;;;28.70;63.90;;;;;;4965083;28;20472;-84
2023/06/21 02:02:49;;;;;;;6.00;2.87;;;28.70;63.80;;;;;;4971492;28;20954;-84
2023/06/21 02:05:18;;;;;;;5.07;2.60;;;28.70;63.80;;;;;;4972430;28;20467;-84
2023/06/21 02:07:48;;;;;;;5.67;3.47;;;28.70;64.10;;;;;;4955106;28;20490;-84
2023/06/21 02:10:18;;;;;;;6.10;3.30;;;28.70;64.10;;;;;;4973245;28;20461;-83
2023/06/21 02:12:50;;;;;;;5.03;2.93;;;28.70;63.90;;;;;;4972735;28;20457;-83
2023/06/21 02:15:20;;;;;;;4.00;3.60;;;28.70;63.90;;;;;;4970617;28;20465;-83
2023/06/21 02:17:49;;;;;;;6.67;2.67;;;28.60;63.90;;;;;;4956884;28;20464;-83
2023/06/21 02:20:19;;;;;;;2.87;2.43;;;28.60;63.90;;;;;;4971858;28;20469;-83
2023/06/21 02:22:48;;;;;;;3.53;2.60;;;28.60;63.80;;;;;;4966346;28;20568;-84
2023/06/21 02:25:17;;;;;;;4.33;3.07;;;28.60;63.80;;;;;;4965448;28;20825;-83
2023/06/21 02:27:45;;;;;;;7.67;2.87;;;28.60;64.00;;;;;;4970933;28;20472;-83
2023/06/21 02:30:14;;;;;;;6.13;3.77;;;28.60;63.80;;;;;;4972314;28;20466;-83
2023/06/21 02:32:43;;;;;;;5.90;3.13;;;28.60;63.90;;;;;;4971799;28;20468;-83
2023/06/21 02:35:12;;;;;;;6.03;3.40;;;28.60;63.90;;;;;;4954983;28;20834;-84
2023/06/21 02:37:40;;;;;;;5.20;3.23;;;28.60;63.90;;;;;;4971803;28;20552;-84
2023/06/21 02:40:10;;;;;;;7.07;3.40;;;28.60;63.90;;;;;;4973631;28;20548;-83
2023/06/21 02:42:40;;;;;;;5.90;3.50;;;28.60;64.00;;;;;;4978839;28;20498;-83
2023/06/21 02:45:09;;;;;;;5.87;3.13;;;28.60;64.00;;;;;;4951218;28;20462;-84
2023/06/21 02:47:37;;;;;;;5.90;3.13;;;28.60;64.00;;;;;;4972784;28;20497;-83
2023/06/21 02:50:08;;;;;;;7.40;3.60;;;28.50;63.90;;;;;;4972733;28;20460;-83
2023/06/21 02:52:36;;;;;;;4.50;2.83;;;28.50;63.90;;;;;;4971937;28;20549;-84
2023/06/21 02:55:07;;;;;;;6.50;3.87;;;28.50;63.90;;;;;;4971809;28;20518;-83
2023/06/21 02:57:35;;;;;;;7.07;3.70;;;28.50;63.90;;;;;;4972690;28;20434;-83
2023/06/21 03:00:17;;;;;;;3.70;3.30;;;28.50;63.90;;;;;;4954889;28;20505;-83
2023/06/21 03:02:46;;;;;;;6.33;3.70;;;28.50;63.80;;;;;;4971958;28;20464;-83
2023/06/21 03:05:16;;;;;;;7.83;3.50;;;28.50;63.80;;;;;;4970996;28;20557;-83
2023/06/21 03:07:47;;;;;;;3.10;2.63;;;28.50;63.80;;;;;;4972989;28;20493;-83
2023/06/21 03:10:16;;;;;;;5.67;3.23;;;28.40;63.80;;;;;;4972788;28;20452;-84
2023/06/21 03:12:45;;;;;;;5.73;3.60;;;28.40;63.80;;;;;;4964392;28;20468;-83
2023/06/21 03:15:17;;;;;;;6.80;3.40;;;28.40;63.80;;;;;;4953780;28;20515;-83
2023/06/21 03:17:46;;;;;;;6.23;3.60;;;28.40;63.70;;;;;;4955018;28;20515;-83
2023/06/21 03:20:16;;;;;;;7.00;3.60;;;28.40;63.80;;;;;;4954986;28;20502;-84
2023/06/21 03:22:45;;;;;;;9.13;3.90;;;28.40;63.90;;;;;;4971064;28;20480;-83
2023/06/21 03:25:15;;;;;;;5.93;3.50;;;28.40;64.10;;;;;;4954900;28;20981;-84
2023/06/21 03:27:46;;;;;;;4.67;3.50;;;28.40;64.10;;;;;;4955355;28;20474;-83
2023/06/21 03:30:14;;;;;;;3.67;3.20;;;28.30;64.30;;;;;;4971512;28;20938;-84
2023/06/21 03:32:47;;;;;;;3.97;3.07;;;28.40;64.10;;;;;;4954821;28;20469;-84
2023/06/21 03:35:19;;;;;;;7.03;3.50;;;28.30;64.10;;;;;;4969896;28;20564;-84
2023/06/21 03:37:50;;;;;;;5.73;3.13;;;28.30;64.20;;;;;;4971982;28;20461;-83
2023/06/21 03:40:26;;;;;;;7.50;4.50;;;28.30;64.30;;;;;;4954972;28;20518;-84
2023/06/21 03:42:56;;;;;;;8.17;3.57;;;28.30;64.20;;;;;;4954120;28;20517;-83
2023/06/21 03:45:25;;;;;;;7.67;3.47;;;28.30;64.30;;;;;;4970786;28;20467;-83
2023/06/21 03:47:59;;;;;;;6.60;3.50;;;28.30;64.30;;;;;;4984083;28;20477;-83
2023/06/21 03:50:28;;;;;;;4.37;3.23;;;28.30;64.30;;;;;;4958659;28;20468;-83
2023/06/21 03:52:57;;;;;;;5.70;3.27;;;28.30;64.50;;;;;;4968322;28;20474;-84
2023/06/21 03:55:27;;;;;;;4.40;3.00;;;28.30;64.60;;;;;;4954105;28;20503;-83
2023/06/21 03:57:56;;;;;;;4.20;3.80;;;28.30;64.40;;;;;;4949722;28;20451;-83
2023/06/21 04:00:25;;;;;;;8.20;3.33;;;28.30;64.20;;;;;;4952239;28;20493;-83
2023/06/21 04:02:55;;;;;;;3.20;2.80;;;28.30;64.20;;;;;;4968780;28;21328;-83
2023/06/21 04:05:23;;;;;;;6.50;4.00;;;28.30;64.20;;;;;;4954943;28;20458;-83
2023/06/21 04:07:53;;;;;;;5.17;3.10;;;28.30;64.20;;;;;;4971806;28;20496;-83
2023/06/21 04:10:21;;;;;;;5.97;4.00;;;28.30;64.40;;;;;;4950173;28;20462;-83
2023/06/21 04:12:49;;;;;;;7.40;2.87;;;28.30;64.80;;;;;;4966682;28;20477;-83
2023/06/21 04:15:20;;;;;;;5.23;3.37;;;28.30;65.00;;;;;;4952743;28;20506;-83
2023/06/21 04:17:49;;;;;;;5.07;3.50;;;28.30;64.50;;;;;;4970799;28;20559;-83
2023/06/21 04:20:18;;;;;;;5.17;3.70;;;28.30;64.50;;;;;;4978933;28;20535;-83
2023/06/21 04:22:46;;;;;;;4.90;4.50;;;28.30;64.90;;;;;;4970805;28;20448;-83
2023/06/21 04:25:16;;;;;;;8.30;4.50;;;28.30;64.50;;;;;;4973205;28;20987;-83
2023/06/21 04:27:45;;;;;;;7.43;4.80;;;28.30;64.50;;;;;;4966143;28;20964;-83
2023/06/21 04:30:18;;;;;;;8.47;4.63;;;28.30;64.50;;;;;;4971685;28;20462;-84
2023/06/21 04:32:46;;;;;;;9.13;5.10;;;28.30;64.70;;;;;;4973859;28;20463;-83
2023/06/21 04:35:17;;;;;;;5.80;5.30;;;28.30;64.80;;;;;;4971618;28;20465;-83
2023/06/21 04:37:46;;;;;;;8.63;5.30;;;28.30;64.70;;;;;;4968759;28;20475;-83
2023/06/21 04:40:17;;;;;;;5.60;5.10;;;28.20;64.70;;;;;;4970917;28;20522;-83
2023/06/21 04:42:54;;;;;;;7.60;5.20;;;28.20;64.70;;;;;;4971674;28;20465;-82
2023/06/21 04:45:26;;;;;;;6.77;6.10;;;28.20;64.90;;;;;;4973106;28;20995;-83
2023/06/21 04:47:57;;;;;;;9.67;6.60;;;28.30;65.30;;;;;;4956491;28;20532;-83
2023/06/21 04:50:27;;;;;;;7.67;6.30;;;28.30;65.20;;;;;;4971559;28;20585;-83
2023/06/21 04:52:59;;;;;;;7.20;5.47;;;28.20;65.20;;;;;;4974313;28;20468;-84
2023/06/21 04:55:29;;;;;;;6.50;5.90;;;28.20;65.00;;;;;;4970632;28;21700;-84
2023/06/21 04:57:58;;;;;;;6.10;5.40;;;28.20;64.70;;;;;;4967695;28;20515;-84
2023/06/21 05:00:27;;;;;;;7.30;5.33;;;28.30;64.50;;;;;;4967629;28;20487;-82
2023/06/21 05:02:56;;;;;;;5.53;5.00;;;28.30;64.40;;;;;;4963356;28;20476;-82
2023/06/21 05:05:25;;;;;;;5.60;5.07;;;28.30;64.30;;;;;;4970470;28;22130;-83
2023/06/21 05:07:53;;;;;;;6.07;4.60;;;28.30;64.20;;;;;;4972043;28;20493;-84
2023/06/21 05:10:21;;;;;;;4.87;4.47;;;28.40;64.00;;;;;;4970930;28;20831;-82
2023/06/21 05:12:51;;;;;;;6.60;5.30;;;28.40;64.00;;;;;;4974896;28;20504;-83
2023/06/21 05:15:19;;;;;;;7.27;4.93;;;28.40;63.90;;;;;;4969680;28;20465;-81
2023/06/21 05:17:48;;;;;;;7.67;5.07;;;28.40;63.80;;;;;;4970548;28;21019;-83
2023/06/21 05:20:18;;;;;;;5.00;4.53;;;28.40;63.70;;;;;;4970594;28;20538;-81
2023/06/21 05:22:47;;;;;;;5.37;4.77;;;28.40;63.80;;;;;;4970898;28;20464;-82
2023/06/21 05:25:15;;;;;;;6.43;5.83;;;28.40;63.80;;;;;;4970340;28;20468;-84
2023/06/21 05:27:43;;;;;;;6.43;5.17;;;28.40;63.80;;;;;;4966883;28;21042;-84
2023/06/21 05:30:13;;;;;;;8.80;6.33;;;28.40;63.80;;;;;;4969187;28;20460;-83
2023/06/21 05:32:41;;;;;;;9.10;6.20;;;28.40;63.90;;;;;;4967595;28;20464;-83
2023/06/21 05:35:09;;;;;;;10.00;6.17;;;28.40;64.20;;;;;;4966842;28;20461;-83
2023/06/21 05:37:38;;;;;;;7.73;6.93;;;28.40;64.10;;;;;;4967817;28;20505;-83
2023/06/21 05:40:08;;;;;;;9.10;6.30;;;28.40;63.70;;;;;;4969676;28;20530;-83
2023/06/21 05:42:37;;;;;;;11.07;6.60;;;28.40;63.70;;;;;;4965350;28;20469;-82
2023/06/21 05:45:07;;;;;;;10.17;6.93;;;28.40;63.70;;;;;;4972838;28;20440;-83
2023/06/21 05:47:36;;;;;;;7.87;7.03;;;28.40;63.70;;;;;;4969620;28;20840;-82
2023/06/21 05:50:05;;;;;;;11.63;6.60;;;28.40;63.70;;;;;;4965436;28;20472;-84
2023/06/21 05:52:34;;;;;;;10.50;7.50;;;28.40;63.60;;;;;;4970396;28;20471;-82
2023/06/21 05:55:02;;;;;;;8.73;7.10;;;28.40;63.70;;;;;;4972490;28;20844;-82
2023/06/21 05:57:30;;;;;;;10.50;7.37;;;28.40;63.60;;;;;;4971208;28;20567;-82
2023/06/21 05:59:58;;;;;;;10.30;5.83;;;28.40;63.60;;;;;;4970002;28;20475;-82
2023/06/21 06:02:26;;;;;;;10.70;6.27;;;28.40;63.70;;;;;;4972720;28;20969;-82
2023/06/21 06:04:56;;;;;;;12.63;7.40;;;28.50;63.60;;;;;;4976619;28;20465;-81
2023/06/21 06:07:25;;;;;;;9.83;7.00;;;28.50;63.60;;;;;;4972869;28;20497;-82
2023/06/21 06:09:53;;;;;;;9.30;6.73;;;28.50;63.60;;;;;;4972118;28;20481;-82
2023/06/21 06:12:21;;;;;;;13.53;6.43;;;28.50;63.60;;;;;;4975912;28;20521;-81
2023/06/21 06:14:51;;;;;;;9.57;7.27;;;28.50;63.60;;;;;;4982357;28;20460;-82
2023/06/21 06:17:19;;;;;;;8.47;6.20;;;28.50;63.60;;;;;;4971142;28;20453;-80
2023/06/21 06:19:48;;;;;;;7.97;6.70;;;28.50;63.70;;;;;;4962867;28;20560;-81
2023/06/21 06:22:17;;;;;;;9.30;7.50;;;28.50;64.20;;;;;;4969767;28;21034;-81
2023/06/21 06:24:47;;;;;;;10.30;7.10;;;28.60;64.30;;;;;;4970580;28;20547;-81
2023/06/21 06:27:16;;;;;;;8.83;7.67;;;28.60;64.30;;;;;;4971691;28;20473;-81
2023/06/21 06:29:44;;;;;;;12.80;7.23;;;28.60;64.40;;;;;;4969645;28;20517;-82
2023/06/21 06:32:12;;;;;;;14.10;8.80;;;28.60;64.30;;;;;;4974202;28;20839;-81
2023/06/21 06:34:40;;;;;;;10.80;7.80;;;28.70;64.40;;;;;;4979347;28;20473;-86
2023/06/21 06:37:09;;;;;;;9.27;7.43;;;28.70;64.40;;;;;;4972223;28;20466;-84
2023/06/21 06:39:47;;;;;;;10.60;8.20;;;28.70;64.50;;;;;;4960674;28;20476;-84
2023/06/21 06:42:15;;;;;;;12.90;8.17;;;28.70;64.40;;;;;;4971221;28;20509;-82
2023/06/21 06:44:43;;;;;;;8.70;7.63;;;28.80;64.30;;;;;;4972835;28;20476;-84
2023/06/21 06:47:12;;;;;;;12.07;7.47;;;28.80;64.20;;;;;;4971517;28;21084;-83
2023/06/21 06:49:40;;;;;;;7.57;6.07;;;28.80;64.20;;;;;;4971877;28;20958;-84
2023/06/21 06:52:11;;;;;;;9.63;7.23;;;28.80;64.10;;;;;;4972825;28;20489;-83
2023/06/21 06:54:40;;;;;;;11.93;7.97;;;28.90;64.10;;;;;;4968588;28;20464;-83
2023/06/21 06:57:09;;;;;;;10.27;7.13;;;28.90;64.00;;;;;;4971158;28;20476;-81
2023/06/21 06:59:53;;;;;;;11.13;7.37;;;28.90;64.00;;;;;;4981880;28;20982;-84
2023/06/21 07:02:21;;;;;;;8.00;6.53;;;28.90;63.90;;;;;;4974336;28;20478;-84
2023/06/21 07:04:50;;;;;;;11.13;8.00;;;29.00;63.90;;;;;;4970846;28;20563;-81
2023/06/21 07:07:18;;;;;;;7.63;6.73;;;29.00;63.90;;;;;;4971788;28;20998;-82
2023/06/21 07:09:46;;;;;;;7.87;6.87;;;29.00;63.70;;;;;;4970314;28;20469;-82
2023/06/21 07:12:16;;;;;;;8.83;6.83;;;29.00;63.70;;;;;;4971724;28;20492;-81
2023/06/21 07:14:44;;;;;;;11.63;7.60;;;29.00;63.70;;;;;;4972788;28;20498;-83
2023/06/21 07:17:13;;;;;;;7.27;6.57;;;29.10;63.60;;;;;;4972141;28;20474;-81
2023/06/21 07:19:45;;;;;;;10.17;6.87;;;29.10;63.60;;;;;;4977957;28;20467;-82
2023/06/21 07:22:14;;;;;;;8.00;6.87;;;29.10;63.60;;;;;;4970273;28;20484;-81
2023/06/21 07:24:42;;;;;;;9.03;6.33;;;29.10;63.60;;;;;;4972558;28;20555;-81
2023/06/21 07:27:10;;;;;;;6.83;5.90;;;29.10;63.50;;;;;;4959628;28;20984;-82
2023/06/21 07:29:39;;;;;;;7.73;6.60;;;29.10;63.50;;;;;;4971721;28;20493;-82
2023/06/21 07:32:08;;;;;;;10.13;7.80;;;29.10;63.50;;;;;;4972337;28;20479;-82
2023/06/21 07:34:36;;;;;;;6.80;6.00;;;29.20;63.40;;;;;;4970178;28;20511;-81
2023/06/21 07:37:05;;;;;;;6.80;6.20;;;29.20;63.40;;;;;;4969701;28;20551;-81
2023/06/21 07:39:33;;;;;;;7.83;6.70;;;29.20;63.30;;;;;;4975824;28;20531;-83
2023/06/21 07:42:20;;;;;;;10.93;7.60;;;29.20;63.40;;;;;;4973193;28;20611;-81
2023/06/21 07:44:52;;;;;;;11.00;8.33;;;29.20;63.40;;;;;;4971176;28;20472;-82
2023/06/21 07:47:22;;;;;;;9.77;7.40;;;29.20;63.30;;;;;;4976622;28;20461;-84
2023/06/21 07:49:50;;;;;;;7.63;6.83;;;29.20;63.30;;;;;;4971957;28;20458;-85
2023/06/21 07:52:19;;;;;;;8.00;7.30;;;29.20;63.30;;;;;;4969204;28;20512;-84
2023/06/21 07:54:49;;;;;;;8.77;7.00;;;29.20;63.30;;;;;;4954806;28;20469;-84
2023/06/21 07:57:18;;;;;;;7.37;6.63;;;29.30;63.20;;;;;;4970281;28;20550;-85
2023/06/21 07:59:47;;;;;;;7.17;6.40;;;29.30;63.20;;;;;;4972126;28;20494;-82
2023/06/21 08:02:18;;;;;;;6.53;5.93;;;29.20;63.20;;;;;;4969001;28;21070;-83
2023/06/21 08:04:49;;;;;;;7.60;6.70;;;29.30;63.20;;;;;;4971702;28;20471;-82
2023/06/21 08:07:17;;;;;;;8.83;6.23;;;29.30;63.10;;;;;;4970238;28;20559;-87
2023/06/21 08:09:46;;;;;;;7.10;6.40;;;29.30;63.20;;;;;;4954175;28;20896;-88
2023/06/21 08:12:14;;;;;;;7.63;6.93;;;29.30;63.00;;;;;;4971515;28;20524;-84
2023/06/21 08:14:42;;;;;;;7.13;6.43;;;29.40;62.90;;;;;;4971075;28;20466;-85
2023/06/21 08:17:10;;;;;;;7.70;6.90;;;29.40;62.90;;;;;;4971342;28;20470;-84
2023/06/21 08:19:40;;;;;;;9.73;7.40;;;29.40;62.80;;;;;;4968546;28;20460;-85
2023/06/21 08:22:08;;;;;;;7.40;6.50;;;29.40;62.80;;;;;;4969820;28;21051;-87
2023/06/21 08:24:36;;;;;;;7.03;6.53;;;29.40;62.80;;;;;;4960007;28;20461;-86
2023/06/21 08:27:05;;;;;;;7.07;6.37;;;29.40;62.70;;;;;;4970102;28;20902;-84
2023/06/21 08:29:33;;;;;;;8.07;7.30;;;29.40;62.80;;;;;;4968359;28;20461;-84
2023/06/21 08:32:03;;;;;;;7.40;6.80;;;29.40;62.60;;;;;;4971179;28;20544;-81
2023/06/21 08:34:31;;;;;;;8.10;7.30;;;29.40;62.60;;;;;;4969167;28;20588;-82
2023/06/21 08:37:01;;;;;;;9.03;5.93;;;29.40;62.70;;;;;;4958699;28;20470;-82
2023/06/21 08:39:29;;;;;;;7.50;6.77;;;29.40;62.70;;;;;;4970036;28;20527;-81
2023/06/21 08:42:00;;;;;;;7.97;7.13;;;29.50;62.60;;;;;;4977688;28;20562;-82
2023/06/21 08:44:28;;;;;;;6.90;6.40;;;29.50;62.50;;;;;;4978143;28;20513;-83
2023/06/21 08:47:00;;;;;;;7.27;6.67;;;29.50;62.50;;;;;;4970319;28;20478;-83
2023/06/21 08:49:32;;;;;;;7.70;6.80;;;29.60;62.40;;;;;;4970688;28;20458;-84
2023/06/21 08:52:06;;;;;;;8.00;7.37;;;29.60;62.40;;;;;;4971028;28;20466;-83
2023/06/21 08:54:39;;;;;;;7.60;6.90;;;29.60;62.30;;;;;;4968695;28;20462;-84
2023/06/21 08:57:14;;;;;;;6.70;6.10;;;29.60;62.30;;;;;;4957010;28;20472;-83
2023/06/21 08:59:49;;;;;;;7.63;7.00;;;29.60;62.30;;;;;;4969742;28;20503;-86
2023/06/21 09:02:27;;;;;;;7.67;7.07;;;29.60;62.30;;;;;;4956258;28;20959;-86
2023/06/21 09:05:00;;;;;;;8.67;6.80;;;29.60;62.30;;;;;;4970534;28;20464;-84
2023/06/21 09:07:30;;;;;;;7.27;6.57;;;29.60;62.40;;;;;;4968726;28;20490;-84
2023/06/21 09:10:00;;;;;;;7.50;6.27;;;29.60;62.50;;;;;;4970161;28;20561;-86
2023/06/21 09:12:31;;;;;;;7.03;6.30;;;29.60;63.10;;;;;;4974510;28;20477;-87
2023/06/21 09:14:59;;;;;;;7.37;6.67;;;29.50;63.60;;;;;;4972684;28;20956;-86
2023/06/21 09:17:28;;;;;;;7.23;6.53;;;29.50;63.60;;;;;;4981423;28;20466;-84
2023/06/21 09:19:57;;;;;;;8.13;6.00;;;29.50;63.80;;;;;;4974377;28;20501;-85
2023/06/21 09:22:27;;;;;;;8.27;7.47;;;29.50;63.40;;;;;;4973535;28;20477;-84
2023/06/21 09:24:56;;;;;;;9.60;7.20;;;29.50;63.40;;;;;;4975573;28;20480;-84
2023/06/21 09:27:25;;;;;;;7.60;6.80;;;29.50;63.00;;;;;;4974079;28;20463;-84
2023/06/21 09:29:53;;;;;;;7.63;7.03;;;29.50;62.70;;;;;;4973661;28;20489;-84
2023/06/21 09:32:21;;;;;;;7.00;6.40;;;29.40;62.60;;;;;;4972678;28;20966;-83
2023/06/21 09:34:51;;;;;;;7.57;6.67;;;29.40;62.60;;;;;;4977562;28;20483;-83
2023/06/21 09:37:32;;;;;;;7.30;6.57;;;29.40;62.60;;;;;;4966904;28;20981;-82
2023/06/21 09:40:01;;;;;;;7.33;6.70;;;29.40;62.50;;;;;;4969765;28;20960;-84
2023/06/21 09:42:30;;;;;;;7.23;6.63;;;29.40;62.60;;;;;;4976991;28;20517;-83
2023/06/21 09:44:58;;;;;;;7.40;6.70;;;29.40;62.50;;;;;;4973044;28;20474;-83
2023/06/21 09:47:31;;;;;;;7.40;6.40;;;29.30;62.40;;;;;;4973240;28;20546;-82
2023/06/21 09:49:59;;;;;;;6.93;6.33;;;29.30;62.50;;;;;;4973015;28;20556;-81
2023/06/21 09:52:28;;;;;;;7.47;6.80;;;29.30;62.50;;;;;;4972560;28;20471;-84
2023/06/21 09:54:58;;;;;;;7.80;6.93;;;29.20;62.50;;;;;;4971599;28;20478;-83
2023/06/21 09:57:32;;;;;;;7.60;6.93;;;29.20;62.50;;;;;;4972863;28;20469;-83
2023/06/21 10:00:03;;;;;;;8.33;7.53;;;29.20;62.50;;;;;;4953893;28;20478;-84
2023/06/21 10:02:39;;;;;;;8.17;6.07;;;29.20;62.50;;;;;;4966198;28;20492;-82
2023/06/21 10:05:16;;;;;;;7.87;6.17;;;29.20;62.50;;;;;;4970687;28;20941;-83
2023/06/21 10:07:45;;;;;;;7.17;6.47;;;29.20;62.70;;;;;;4962843;28;20496;-84
2023/06/21 10:10:14;;;;;;;6.83;6.10;;;29.20;62.40;;;;;;4972057;28;20469;-82
2023/06/21 10:12:51;;;;;;;6.70;6.10;;;29.20;62.40;;;;;;4971342;28;20566;-83
2023/06/21 10:15:23;;;;;;;6.83;6.33;;;29.20;62.60;;;;;;4955460;28;20534;-83
2023/06/21 10:17:53;;;;;;;8.00;7.20;;;29.20;62.50;;;;;;4972622;28;20512;-83
2023/06/21 10:20:25;;;;;;;6.53;5.90;;;29.10;62.40;;;;;;4968855;28;21045;-84
2023/06/21 10:22:54;;;;;;;6.10;5.60;;;29.10;62.40;;;;;;4970460;28;20472;-84
2023/06/21 10:25:24;;;;;;;8.17;7.40;;;29.10;62.40;;;;;;4964801;28;20846;-84
2023/06/21 10:27:58;;;;;;;8.33;7.47;;;29.10;62.40;;;;;;4969482;28;20834;-84
2023/06/21 10:30:28;;;;;;;10.83;6.63;;;29.10;62.40;;;;;;4965344;28;20464;-84
2023/06/21 10:33:01;;;;;;;7.67;6.30;;;29.10;62.40;;;;;;4967565;28;20468;-83
2023/06/21 10:35:35;;;;;;;7.53;6.60;;;29.10;62.40;;;;;;4964760;28;20535;-84
2023/06/21 10:38:09;;;;;;;9.33;6.23;;;29.10;62.50;;;;;;4967421;28;20502;-82
2023/06/21 10:40:38;;;;;;;9.30;6.13;;;29.10;62.50;;;;;;4950337;28;20477;-80
2023/06/21 10:43:10;;;;;;;6.43;5.80;;;29.10;62.50;;;;;;4969037;28;20484;-81
2023/06/21 10:45:39;;;;;;;8.03;6.50;;;29.10;62.50;;;;;;4969461;28;20479;-81
2023/06/21 10:48:11;;;;;;;6.80;6.20;;;29.10;62.50;;;;;;4969380;28;20470;-84
2023/06/21 10:50:43;;;;;;;7.97;6.63;;;29.20;62.50;;;;;;4976504;28;21125;-84
2023/06/21 10:53:13;;;;;;;8.23;6.43;;;29.20;63.20;;;;;;4973681;28;20545;-83
2023/06/21 10:55:42;;;;;;;7.47;6.50;;;29.20;63.30;;;;;;4971583;28;20791;-84
2023/06/21 10:58:13;;;;;;;8.20;6.60;;;29.20;63.30;;;;;;4973950;28;20545;-82
2023/06/21 11:00:44;;;;;;;9.13;6.37;;;29.20;63.30;;;;;;4967856;28;20459;-82
2023/06/21 11:03:16;;;;;;;7.43;6.60;;;29.20;63.50;;;;;;4971202;28;20481;-84
2023/06/21 11:05:45;;;;;;;6.70;6.10;;;29.20;63.30;;;;;;4968414;28;20463;-88
2023/06/21 11:08:16;;;;;;;7.37;6.13;;;29.00;63.50;;;;;;4967791;28;20494;-88
2023/06/21 11:10:46;;;;;;;11.13;7.50;;;28.90;63.90;;;;;;4968168;28;20554;-87
2023/06/21 11:13:17;;;;;;;11.97;6.00;;;28.90;63.90;;;;;;4970750;28;20467;-85
2023/06/21 11:15:48;;;;;;;8.80;5.47;;;28.70;64.70;;;;;;4971073;28;20460;-83
2023/06/21 11:18:18;;;;;;;13.60;7.00;;;28.60;64.90;;;;;;4972765;28;20469;-86
2023/06/21 11:20:48;;;;;;;16.10;6.83;;;28.50;65.10;;;;;;4970739;28;20573;-85
2023/06/21 11:23:18;;;;;;;10.33;5.50;;;28.50;65.00;;;;;;4964863;28;20500;-86
2023/06/21 11:25:51;;;;;;;10.00;6.33;;;28.50;65.00;;;;;;4967443;28;20464;-83
2023/06/21 11:28:26;;;;;;;22.07;17.70;;;28.50;65.30;;;;;;4971310;28;20489;-84
2023/06/21 11:31:08;;;;;;;13.13;9.37;;;28.10;65.90;;;;;;4956199;28;20800;-85
2023/06/21 11:33:48;;;;;;;10.23;6.30;;;27.80;67.00;;;;;;4969909;28;20457;-83
2023/06/21 11:36:20;;;;;;;14.33;6.10;;;27.90;67.40;;;;;;4967979;28;20478;-83
2023/06/21 11:38:51;;;;;;;12.97;6.00;;;27.90;67.00;;;;;;4974539;28;20459;-83
2023/06/21 11:41:57;;;;;;;11.90;5.63;;;27.80;67.50;;;;;;4981309;28;20549;-84
2023/06/21 11:44:29;;;;;;;8.27;5.60;;;27.70;68.10;;;;;;4970233;28;20473;-85
2023/06/21 11:47:17;;;;;;;11.87;6.07;;;27.80;67.40;;;;;;4966186;28;20517;-83
2023/06/21 11:49:52;;;;;;;12.87;6.70;;;27.80;67.40;;;;;;4969082;28;20508;-83
2023/06/21 11:52:33;;;;;;;9.00;5.47;;;27.80;67.10;;;;;;4965453;28;21007;-86
2023/06/21 11:55:16;;;;;;;9.03;5.67;;;27.80;67.20;;;;;;4967831;28;20470;-83
2023/06/21 11:57:47;;;;;;;8.27;4.70;;;27.90;66.70;;;;;;4966509;28;20470;-83
2023/06/21 12:00:18;;;;;;;12.63;5.83;;;28.00;66.50;;;;;;4969173;28;20549;-85
2023/06/21 12:02:46;;;;;;;13.77;6.37;;;28.00;66.70;;;;;;4969308;28;20463;-86
2023/06/21 12:05:15;;;;;;;17.50;9.00;;;28.00;67.50;;;;;;4971508;28;21017;-85
2023/06/21 12:07:44;;;;;;;12.30;9.20;;;28.10;66.80;;;;;;4973397;28;20488;-85
2023/06/21 12:10:13;;;;;;;7.10;6.40;;;28.10;66.50;;;;;;4955800;28;20791;-86
2023/06/21 12:12:41;;;;;;;13.00;7.47;;;28.20;66.50;;;;;;4970909;28;20465;-84
2023/06/21 12:15:10;;;;;;;10.90;7.70;;;28.30;66.50;;;;;;4971869;28;20461;-85
2023/06/21 12:17:39;;;;;;;8.97;6.00;;;28.60;65.80;;;;;;4974890;28;20517;-87
2023/06/21 12:20:09;;;;;;;11.63;6.73;;;28.80;65.40;;;;;;4981258;28;20451;-87
2023/06/21 12:22:38;;;;;;;11.40;7.30;;;28.90;65.20;;;;;;4974792;28;20549;-85
2023/06/21 12:25:07;;;;;;;14.27;8.13;;;29.00;64.80;;;;;;4971602;28;20521;-85
2023/06/21 12:27:35;;;;;;;11.90;5.80;;;29.10;64.50;;;;;;4973424;28;20496;-87
2023/06/21 12:30:03;;;;;;;11.20;5.77;;;29.30;64.50;;;;;;4978020;28;20454;-84
2023/06/21 12:32:35;;;;;;;12.00;6.90;;;29.30;64.20;;;;;;4971845;28;20520;-86
2023/06/21 12:35:07;;;;;;;13.50;6.40;;;29.40;64.40;;;;;;4971546;28;20458;-84
2023/06/21 12:37:35;;;;;;;7.80;4.90;;;29.50;64.10;;;;;;4969383;28;20516;-85
2023/06/21 12:40:05;;;;;;;14.23;6.60;;;29.60;63.70;;;;;;4958449;28;20872;-87
2023/06/21 12:42:33;;;;;;;10.27;4.73;;;29.70;63.30;;;;;;4969259;28;20461;-86
2023/06/21 12:45:02;;;;;;;8.57;4.40;;;29.80;63.20;;;;;;4978725;28;20487;-85
2023/06/21 12:47:32;;;;;;;6.50;4.23;;;29.90;62.90;;;;;;4971925;28;20485;-85
2023/06/21 12:50:01;;;;;;;5.80;3.80;;;30.00;62.70;;;;;;4984087;28;20505;-85
2023/06/21 12:52:30;;;;;;;8.27;4.60;;;30.00;62.60;;;;;;4979503;28;20821;-86
2023/06/21 12:55:00;;;;;;;11.47;5.17;;;30.10;62.40;;;;;;4976570;28;20493;-84
2023/06/21 12:57:30;;;;;;;6.23;4.63;;;30.20;62.30;;;;;;4975706;28;20461;-84
2023/06/21 12:59:58;;;;;;;4.40;4.00;;;30.20;62.50;;;;;;4974747;28;20543;-86
2023/06/21 13:02:29;;;;;;;8.60;4.70;;;30.20;62.30;;;;;;4974985;28;20518;-86